Time;durP1;ratioP1;P1;durP2;ratioP2;P2;SDS_P1;SDS_P2;PMS_P1;PMS_P2;Temp;Humidity;BMP_temperature;BMP_pressure;BME280_temperature;BME280_humidity;BME280_pressure;Samples;Min_cycle;Max_cycle;Signal;HPM_P1;HPM_P2
2023/05/11 03:20:12;;;;;;;7.37;4.67;;;6.00;99.90;;;;;;4384143;28;657830;-72
2023/05/11 03:22:59;;;;;;;10.32;4.93;;;6.00;99.90;;;;;;4439508;28;656671;-71
2023/05/11 03:25:46;;;;;;;10.00;4.83;;;6.00;99.90;;;;;;4422604;28;657614;-71
2023/05/11 03:28:34;;;;;;;7.40;4.80;;;6.00;99.90;;;;;;4437217;28;658041;-72
2023/05/11 03:31:21;;;;;;;12.27;5.20;;;6.10;99.90;;;;;;4410054;28;656279;-72
2023/05/11 03:34:08;;;;;;;10.55;5.00;;;6.10;99.90;;;;;;4446162;28;658664;-71
2023/05/11 03:36:57;;;;;;;9.40;4.70;;;6.20;99.90;;;;;;4408901;28;657321;-72
2023/05/11 03:39:45;;;;;;;14.40;4.90;;;6.30;99.90;;;;;;4436734;28;656296;-71
2023/05/11 03:42:33;;;;;;;11.43;4.97;;;6.40;99.90;;;;;;4413799;28;658040;-71
2023/05/11 03:45:20;;;;;;;12.97;4.80;;;6.50;99.90;;;;;;4419514;28;657852;-73
2023/05/11 03:48:07;;;;;;;9.97;4.83;;;6.60;99.90;;;;;;4432514;28;658603;-71
2023/05/11 03:50:55;;;;;;;13.70;5.27;;;6.70;99.90;;;;;;4438862;28;656744;-73
2023/05/11 03:53:44;;;;;;;10.67;4.90;;;6.80;99.90;;;;;;4443164;28;658031;-72
2023/05/11 03:56:31;;;;;;;12.40;5.37;;;7.00;99.90;;;;;;4417810;28;657689;-72
2023/05/11 03:59:18;;;;;;;17.13;4.87;;;7.10;99.90;;;;;;4442488;28;658292;-71
2023/05/11 04:02:05;;;;;;;12.47;5.13;;;7.20;99.90;;;;;;4423830;28;657365;-73
2023/05/11 04:04:53;;;;;;;10.37;5.10;;;7.30;99.90;;;;;;4431811;28;658227;-71
2023/05/11 04:07:40;;;;;;;11.87;5.00;;;7.40;99.90;;;;;;4433073;28;658887;-73
2023/05/11 04:10:29;;;;;;;11.57;5.60;;;7.50;99.90;;;;;;4436865;28;658183;-72
2023/05/11 04:13:16;;;;;;;13.47;6.00;;;7.60;99.90;;;;;;4422815;28;657699;-72
2023/05/11 04:16:03;;;;;;;14.03;6.90;;;7.70;99.90;;;;;;4435264;28;658815;-72
2023/05/11 04:18:50;;;;;;;11.07;6.30;;;7.80;99.90;;;;;;4424399;28;657553;-72
2023/05/11 04:21:38;;;;;;;14.57;5.80;;;8.00;99.90;;;;;;4446795;28;658197;-72
2023/05/11 04:24:25;;;;;;;14.73;6.13;;;8.20;99.90;;;;;;4450168;28;658179;-73
2023/05/11 04:27:15;;;;;;;16.47;5.70;;;8.40;99.90;;;;;;4438027;28;658045;-72
2023/05/11 04:30:02;;;;;;;11.07;5.80;;;8.60;99.90;;;;;;4418329;28;658147;-72
2023/05/11 04:32:49;;;;;;;13.47;6.00;;;8.80;99.90;;;;;;4458208;28;657649;-71
2023/05/11 04:35:39;;;;;;;16.63;7.23;;;9.10;99.90;;;;;;4426414;28;658119;-71
2023/05/11 04:38:26;;;;;;;17.60;6.07;;;9.30;99.90;;;;;;4423539;28;657610;-73
2023/05/11 04:41:13;;;;;;;14.60;5.47;;;9.60;99.90;;;;;;4442941;28;657918;-71
2023/05/11 04:44:02;;;;;;;13.03;5.33;;;9.80;99.90;;;;;;4416977;28;657263;-73
2023/05/11 04:46:49;;;;;;;14.30;5.13;;;10.10;99.90;;;;;;4437169;28;658279;-71
2023/05/11 04:49:38;;;;;;;12.20;5.13;;;10.30;99.90;;;;;;4422114;28;659008;-71
2023/05/11 04:52:25;;;;;;;12.30;5.13;;;10.50;99.90;;;;;;4415166;28;658951;-73
2023/05/11 04:55:12;;;;;;;11.57;5.30;;;10.70;99.90;;;;;;4439261;28;659027;-72
2023/05/11 04:58:00;;;;;;;9.67;4.83;;;10.80;99.90;;;;;;4442117;28;659397;-72
2023/05/11 05:00:49;;;;;;;10.40;4.30;;;11.00;99.90;;;;;;4437217;28;659443;-71
2023/05/11 05:03:36;;;;;;;9.43;4.60;;;11.10;99.90;;;;;;4422022;28;659096;-72
2023/05/11 05:06:23;;;;;;;15.63;4.30;;;11.30;99.90;;;;;;4434643;28;658805;-73
2023/05/11 05:09:10;;;;;;;10.17;4.87;;;11.40;99.90;;;;;;4422332;28;658827;-72
2023/05/11 05:11:58;;;;;;;12.50;4.30;;;11.50;99.90;;;;;;4433449;28;660021;-71
2023/05/11 05:14:45;;;;;;;15.77;4.50;;;11.60;99.90;;;;;;4431509;28;658715;-70
2023/05/11 05:17:34;;;;;;;12.67;4.10;;;11.70;99.90;;;;;;4432004;28;659001;-72
2023/05/11 05:20:21;;;;;;;13.67;4.37;;;11.70;99.90;;;;;;4418822;28;658648;-72
2023/05/11 05:23:09;;;;;;;8.63;4.73;;;11.80;99.90;;;;;;4430236;28;660347;-73
2023/05/11 05:25:56;;;;;;;9.93;4.40;;;12.00;99.90;;;;;;4414623;28;657620;-74
2023/05/11 05:28:43;;;;;;;15.63;4.13;;;12.00;99.90;;;;;;4439450;28;658701;-72
2023/05/11 05:31:30;;;;;;;9.03;4.03;;;12.00;99.90;;;;;;4413563;28;658493;-72
2023/05/11 05:34:19;;;;;;;12.00;4.40;;;12.20;99.90;;;;;;4441004;28;657786;-72
2023/05/11 05:37:06;;;;;;;7.07;4.00;;;12.30;99.90;;;;;;4418838;28;658539;-73
2023/05/11 05:39:53;;;;;;;6.80;3.80;;;12.40;99.90;;;;;;4441435;28;658784;-72
2023/05/11 05:42:40;;;;;;;6.03;3.80;;;12.50;99.90;;;;;;4415706;28;657779;-72
2023/05/11 05:45:28;;;;;;;10.87;4.10;;;12.60;99.90;;;;;;4438350;28;659186;-72
2023/05/11 05:48:15;;;;;;;7.50;4.03;;;12.70;99.90;;;;;;4431772;28;658978;-72
2023/05/11 05:51:04;;;;;;;7.77;4.27;;;12.80;99.90;;;;;;4382618;28;658535;-72
2023/05/11 05:53:51;;;;;;;10.77;4.47;;;12.90;99.90;;;;;;4316302;28;657424;-72
2023/05/11 05:56:39;;;;;;;9.43;4.63;;;13.00;99.90;;;;;;4297353;28;659866;-72
2023/05/11 05:59:26;;;;;;;10.90;4.07;;;13.10;99.90;;;;;;4337498;28;658032;-72
2023/05/11 06:02:14;;;;;;;8.73;4.20;;;13.20;99.90;;;;;;4437784;28;657998;-72
2023/05/11 06:05:01;;;;;;;8.03;4.07;;;13.20;99.90;;;;;;4412416;28;658064;-72
2023/05/11 06:07:49;;;;;;;11.13;3.70;;;13.40;99.90;;;;;;4441350;28;657785;-73
2023/05/11 06:10:37;;;;;;;8.20;3.90;;;13.30;99.90;;;;;;4413289;28;659630;-72
2023/05/11 06:13:24;;;;;;;9.90;3.80;;;13.40;99.90;;;;;;4442043;28;657808;-72
2023/05/11 06:16:11;;;;;;;8.63;4.03;;;13.60;99.90;;;;;;4417642;28;658391;-72
2023/05/11 06:18:59;;;;;;;9.53;3.93;;;13.70;99.90;;;;;;4439457;28;658006;-72
2023/05/11 06:21:47;;;;;;;7.73;3.50;;;13.80;99.90;;;;;;4413013;28;657478;-72
2023/05/11 06:24:36;;;;;;;17.07;4.30;;;13.90;99.90;;;;;;4436134;28;657781;-72
2023/05/11 06:27:23;;;;;;;13.80;3.60;;;14.00;99.90;;;;;;4419301;28;659163;-73
2023/05/11 06:30:11;;;;;;;11.43;3.95;;;14.00;99.90;;;;;;4420127;28;659154;-72
2023/05/11 06:32:58;;;;;;;9.63;3.77;;;14.10;99.90;;;;;;4433432;28;659170;-72
2023/05/11 06:35:45;;;;;;;8.27;3.47;;;14.20;99.90;;;;;;4418148;28;657782;-72
2023/05/11 06:38:32;;;;;;;7.50;3.83;;;14.30;99.90;;;;;;4430843;28;658719;-72
2023/05/11 06:41:22;;;;;;;8.50;3.83;;;14.50;99.90;;;;;;4434687;28;657695;-73
2023/05/11 06:44:09;;;;;;;4.93;3.43;;;14.60;99.90;;;;;;4435113;28;657672;-73
2023/05/11 06:46:56;;;;;;;6.47;3.47;;;14.70;99.90;;;;;;4418031;28;657778;-73
2023/05/11 06:49:43;;;;;;;8.47;3.73;;;14.90;99.90;;;;;;4442496;28;658707;-72
2023/05/11 06:52:31;;;;;;;5.63;3.60;;;15.00;99.90;;;;;;4419896;28;657611;-72
2023/05/11 06:55:18;;;;;;;7.97;3.23;;;15.20;99.90;;;;;;4438299;28;657704;-73
2023/05/11 06:58:07;;;;;;;6.67;3.40;;;15.40;99.90;;;;;;4417104;28;658158;-73
2023/05/11 07:00:54;;;;;;;7.93;3.57;;;15.50;99.90;;;;;;4437821;28;658061;-72
2023/05/11 07:03:41;;;;;;;6.83;3.60;;;15.60;99.90;;;;;;4418379;28;657664;-72
2023/05/11 07:06:28;;;;;;;7.13;3.30;;;15.50;99.90;;;;;;4436186;28;657372;-72
2023/05/11 07:09:16;;;;;;;7.17;3.60;;;15.60;99.90;;;;;;4420852;28;658204;-72
2023/05/11 07:12:03;;;;;;;8.47;3.77;;;15.70;99.90;;;;;;4427393;28;657522;-72
2023/05/11 07:14:52;;;;;;;6.20;3.20;;;15.70;99.90;;;;;;4414018;28;657884;-72
2023/05/11 07:17:39;;;;;;;7.27;3.63;;;15.80;99.90;;;;;;4434812;28;657828;-72
2023/05/11 07:20:26;;;;;;;4.97;3.03;;;15.90;99.90;;;;;;4415731;28;658036;-73
2023/05/11 07:23:13;;;;;;;4.80;2.93;;;15.90;99.90;;;;;;4434486;28;657140;-73
2023/05/11 07:26:03;;;;;;;6.33;2.60;;;16.00;99.90;;;;;;4418000;28;657722;-73
2023/05/11 07:28:50;;;;;;;6.03;3.10;;;16.20;99.90;;;;;;4426194;28;657859;-72
2023/05/11 07:31:39;;;;;;;9.07;3.50;;;16.40;99.90;;;;;;4441442;28;659658;-72
2023/05/11 07:34:26;;;;;;;8.27;3.10;;;16.60;99.90;;;;;;4416883;28;657819;-72
2023/05/11 07:37:14;;;;;;;8.70;3.67;;;16.70;99.90;;;;;;4443525;28;657255;-72
2023/05/11 07:40:01;;;;;;;5.60;3.23;;;16.80;99.90;;;;;;4411563;28;657724;-72
2023/05/11 07:42:48;;;;;;;6.10;3.40;;;16.90;99.90;;;;;;4435602;28;658621;-72
2023/05/11 07:45:35;;;;;;;6.10;3.43;;;17.10;99.90;;;;;;4419947;28;657962;-72
2023/05/11 07:48:24;;;;;;;7.83;3.40;;;17.10;99.90;;;;;;4439656;28;657659;-73
2023/05/11 07:51:11;;;;;;;6.13;3.17;;;17.20;99.90;;;;;;4418586;28;657417;-73
2023/05/11 07:53:59;;;;;;;8.40;3.00;;;17.40;99.90;;;;;;4441962;28;657876;-73
2023/05/11 07:56:46;;;;;;;4.60;2.77;;;17.70;99.90;;;;;;4411918;28;657428;-72
2023/05/11 07:59:33;;;;;;;7.73;2.40;;;17.70;99.90;;;;;;4439663;28;657792;-73
2023/05/11 08:02:20;;;;;;;5.03;2.73;;;17.60;99.90;;;;;;4422350;28;658534;-72
2023/05/11 08:05:10;;;;;;;6.87;2.30;;;17.80;99.90;;;;;;4442670;28;658532;-73
2023/05/11 08:07:57;;;;;;;5.27;3.03;;;18.00;99.90;;;;;;4422995;28;658077;-73
2023/05/11 08:10:44;;;;;;;7.47;3.03;;;18.10;99.90;;;;;;4441703;28;658276;-73
2023/05/11 08:13:32;;;;;;;5.77;2.90;;;18.10;99.90;;;;;;4425463;28;657705;-73
2023/05/11 08:16:19;;;;;;;4.13;2.50;;;18.30;99.90;;;;;;4437698;28;657353;-73
2023/05/11 08:19:06;;;;;;;6.30;2.90;;;18.60;99.90;;;;;;4419084;28;657387;-73
2023/05/11 08:21:55;;;;;;;5.87;2.70;;;18.80;99.90;;;;;;4440116;28;658367;-73
2023/05/11 08:24:42;;;;;;;4.37;2.90;;;18.80;99.90;;;;;;4421665;28;658775;-73
2023/05/11 08:27:29;;;;;;;8.27;2.80;;;18.90;99.90;;;;;;4441389;28;657278;-73
2023/05/11 08:30:17;;;;;;;9.00;2.90;;;18.90;99.90;;;;;;4423022;28;658114;-73
2023/05/11 08:33:04;;;;;;;8.20;2.40;;;19.10;99.90;;;;;;4443053;28;658036;-73
2023/05/11 08:35:51;;;;;;;5.23;2.30;;;19.30;99.90;;;;;;4422174;28;657296;-73
2023/05/11 08:38:40;;;;;;;7.53;2.10;;;19.40;99.90;;;;;;4439708;28;657717;-73
2023/05/11 08:41:27;;;;;;;4.80;1.90;;;19.50;99.90;;;;;;4408097;28;658569;-73
2023/05/11 08:44:16;;;;;;;3.70;2.10;;;19.70;99.90;;;;;;4437800;28;657228;-73
2023/05/11 08:47:05;;;;;;;5.73;2.20;;;19.80;99.90;;;;;;4416663;28;658836;-72
2023/05/11 08:49:52;;;;;;;5.00;1.93;;;20.00;99.90;;;;;;4417489;28;659511;-73
2023/05/11 08:52:40;;;;;;;2.83;1.80;;;20.10;99.90;;;;;;4436296;28;658075;-72
2023/05/11 08:55:29;;;;;;;4.23;1.87;;;20.10;99.90;;;;;;4422822;28;658271;-72
2023/05/11 08:58:18;;;;;;;7.80;1.90;;;20.00;99.90;;;;;;4423429;28;658807;-73
2023/05/11 09:01:06;;;;;;;4.30;2.10;;;20.20;99.90;;;;;;4423232;28;657652;-73
2023/05/11 09:03:53;;;;;;;4.77;2.23;;;20.00;99.90;;;;;;4434772;28;658310;-73
2023/05/11 09:06:40;;;;;;;3.97;2.07;;;20.00;99.90;;;;;;4417480;28;657489;-73
2023/05/11 09:09:27;;;;;;;6.50;2.10;;;20.20;99.90;;;;;;4441968;28;658891;-73
2023/05/11 09:12:17;;;;;;;7.90;2.10;;;20.30;99.90;;;;;;4435943;28;657512;-72
2023/05/11 09:15:05;;;;;;;4.83;2.00;;;20.30;99.90;;;;;;4442232;28;657293;-73
2023/05/11 09:17:52;;;;;;;6.23;1.80;;;20.40;99.90;;;;;;4417806;28;658348;-73
2023/05/11 09:20:40;;;;;;;5.50;2.00;;;20.40;99.90;;;;;;4445931;28;657570;-73
2023/05/11 09:23:27;;;;;;;8.43;2.00;;;20.40;99.90;;;;;;4421093;28;659209;-73
2023/05/11 09:26:14;;;;;;;2.03;1.60;;;20.60;99.90;;;;;;4436156;28;659026;-74
2023/05/11 09:29:03;;;;;;;2.30;1.60;;;20.70;99.90;;;;;;4418447;28;658703;-73
2023/05/11 09:31:50;;;;;;;3.87;1.60;;;20.90;99.90;;;;;;4417152;28;657625;-73
2023/05/11 09:34:38;;;;;;;6.13;1.70;;;21.20;99.90;;;;;;4444041;28;658885;-74
2023/05/11 09:37:25;;;;;;;4.10;1.60;;;21.40;99.90;;;;;;4437409;28;658042;-73
2023/05/11 09:40:12;;;;;;;6.63;1.90;;;21.30;99.90;;;;;;4446384;28;658414;-73
2023/05/11 09:43:01;;;;;;;5.87;1.53;;;21.70;99.90;;;;;;4425373;28;658151;-73
2023/05/11 09:45:50;;;;;;;7.10;1.87;;;21.60;99.90;;;;;;4436989;28;658889;-73
2023/05/11 09:48:38;;;;;;;4.30;1.90;;;21.50;99.90;;;;;;4417488;28;657865;-72
2023/05/11 09:51:29;;;;;;;3.37;1.67;;;21.30;99.90;;;;;;4424787;28;657589;-73
2023/05/11 09:54:17;;;;;;;5.37;1.77;;;21.20;99.90;;;;;;4418269;28;657948;-72
2023/05/11 09:57:05;;;;;;;4.90;1.60;;;21.40;99.90;;;;;;4439217;28;657084;-74
2023/05/11 09:59:52;;;;;;;3.17;1.70;;;21.50;99.90;;;;;;4421359;28;658048;-73
2023/05/11 10:02:41;;;;;;;3.63;1.60;;;21.70;99.90;;;;;;4439438;28;657931;-73
2023/05/11 10:05:30;;;;;;;3.90;2.17;;;21.60;99.90;;;;;;4422151;28;658331;-73
2023/05/11 10:08:17;;;;;;;3.90;2.00;;;21.40;99.90;;;;;;4425772;28;659149;-73
2023/05/11 10:11:05;;;;;;;2.60;1.70;;;21.60;99.90;;;;;;4430083;28;657840;-74
2023/05/11 10:13:52;;;;;;;4.73;1.80;;;21.50;99.90;;;;;;4422991;28;657682;-74
2023/05/11 10:16:40;;;;;;;3.07;1.97;;;21.60;99.90;;;;;;4436829;28;657656;-74
2023/05/11 10:19:29;;;;;;;6.57;1.70;;;21.60;99.90;;;;;;4418741;28;658772;-73
2023/05/11 10:22:17;;;;;;;7.63;2.20;;;21.70;99.90;;;;;;4411643;28;657323;-74
2023/05/11 10:25:05;;;;;;;5.57;1.90;;;22.10;99.90;;;;;;4432624;28;657779;-73
2023/05/11 10:27:52;;;;;;;8.57;2.63;;;22.20;99.90;;;;;;4412535;28;659474;-73
2023/05/11 10:30:39;;;;;;;5.23;2.00;;;22.40;99.90;;;;;;4432194;28;657202;-73
2023/05/11 10:33:26;;;;;;;4.70;2.50;;;22.50;99.90;;;;;;4413075;28;657463;-73
2023/05/11 10:36:15;;;;;;;7.13;2.47;;;22.60;99.90;;;;;;4434914;28;657841;-74
2023/05/11 10:39:02;;;;;;;9.07;2.50;;;22.50;99.90;;;;;;4413933;28;658102;-73
2023/05/11 10:41:58;;;;;;;4.63;2.40;;;22.40;99.90;;;;;;4436436;28;657507;-72
2023/05/11 10:45:08;;;;;;;4.07;2.37;;;22.50;99.90;;;;;;4394573;28;658527;-73
2023/05/11 10:48:28;;;;;;;4.53;2.47;;;22.70;99.90;;;;;;4390277;28;657871;-73
2023/05/11 10:51:34;;;;;;;5.40;2.40;;;22.70;99.90;;;;;;4386904;28;658425;-73
2023/05/11 10:54:33;;;;;;;5.97;2.67;;;22.60;99.90;;;;;;4419168;28;657519;-73
2023/05/11 10:57:30;;;;;;;6.20;2.80;;;22.80;99.90;;;;;;4396933;28;657430;-73
2023/05/11 11:01:05;;;;;;;6.13;2.33;;;22.80;99.90;;;;;;4392211;28;659231;-73
2023/05/11 11:03:58;;;;;;;5.27;2.80;;;23.20;99.90;;;;;;4418160;28;657843;-73
2023/05/11 11:06:46;;;;;;;5.53;2.67;;;23.40;99.90;;;;;;4390467;28;657442;-73
2023/05/11 11:09:56;;;;;;;7.07;3.07;;;23.40;99.90;;;;;;4437430;28;657714;-74
2023/05/11 11:13:01;;;;;;;6.37;2.60;;;23.40;99.90;;;;;;4413556;28;657747;-74
2023/05/11 11:16:10;;;;;;;6.23;2.60;;;23.40;99.90;;;;;;4411413;28;658152;-73
2023/05/11 11:19:31;;;;;;;5.57;2.17;;;23.60;99.90;;;;;;4413470;28;658468;-74
2023/05/11 11:22:45;;;;;;;4.30;2.30;;;23.50;99.90;;;;;;4413163;28;658740;-74
2023/05/11 11:25:52;;;;;;;7.17;2.40;;;23.80;99.90;;;;;;4393223;28;657480;-75
2023/05/11 11:29:12;;;;;;;4.53;2.55;;;24.30;99.90;;;;;;4412095;28;657403;-74
2023/05/11 11:32:27;;;;;;;8.30;2.43;;;23.80;99.90;;;;;;4413084;28;657760;-73
2023/05/11 11:35:46;;;;;;;5.93;2.30;;;24.10;99.90;;;;;;4406661;28;658466;-74
2023/05/11 11:38:34;;;;;;;3.53;2.10;;;24.30;99.90;;;;;;4418288;28;658641;-74
2023/05/11 11:41:28;;;;;;;3.13;1.95;;;24.50;99.90;;;;;;4416183;28;657149;-75
2023/05/11 11:44:21;;;;;;;7.22;2.30;;;24.40;99.90;;;;;;4396290;28;657953;-72
2023/05/11 11:47:12;;;;;;;8.18;2.15;;;24.50;99.90;;;;;;4413858;28;659261;-74
2023/05/11 11:49:59;;;;;;;4.90;1.70;;;24.30;99.90;;;;;;4253516;28;657433;-73
2023/05/11 11:52:47;;;;;;;5.20;2.00;;;24.10;99.90;;;;;;4240216;28;657901;-73
2023/05/11 11:55:48;;;;;;;5.70;2.00;;;23.60;99.90;;;;;;4367573;28;657310;-74
2023/05/11 11:58:57;;;;;;;8.95;1.83;;;24.20;99.90;;;;;;4415693;28;657845;-74
2023/05/11 12:01:45;;;;;;;3.53;1.95;;;24.60;99.90;;;;;;4412544;28;657232;-74
2023/05/11 12:04:43;;;;;;;2.40;1.80;;;24.40;99.90;;;;;;4417029;28;658212;-74
2023/05/11 12:07:33;;;;;;;2.70;1.77;;;24.60;99.90;;;;;;4410709;28;657790;-73
2023/05/11 12:10:21;;;;;;;3.53;1.88;;;24.90;99.90;;;;;;4423327;28;657648;-74
2023/05/11 12:13:09;;;;;;;2.88;1.60;;;25.20;99.90;;;;;;4432237;28;658282;-74
2023/05/11 12:16:08;;;;;;;3.72;1.75;;;25.10;99.90;;;;;;4416522;28;657591;-74
2023/05/11 12:18:56;;;;;;;8.40;1.73;;;24.90;99.90;;;;;;4405169;28;657327;-73
2023/05/11 12:21:45;;;;;;;5.18;1.80;;;24.90;99.90;;;;;;4441467;28;658410;-74
2023/05/11 12:24:32;;;;;;;5.30;1.65;;;25.10;99.90;;;;;;4404593;28;658758;-74
2023/05/11 12:27:19;;;;;;;4.57;1.80;;;24.90;99.90;;;;;;4437540;28;657867;-74
2023/05/11 12:30:10;;;;;;;7.38;1.83;;;25.20;99.90;;;;;;4416890;28;657060;-74
2023/05/11 12:32:58;;;;;;;12.73;1.77;;;25.10;99.90;;;;;;4412392;28;659026;-73
2023/05/11 12:35:45;;;;;;;3.70;1.88;;;25.10;99.90;;;;;;4417578;28;659088;-74
2023/05/11 12:38:32;;;;;;;5.07;2.30;;;24.80;99.90;;;;;;4442821;28;658853;-74
2023/05/11 12:41:21;;;;;;;3.45;1.75;;;24.90;99.90;;;;;;4424729;28;657474;-73
2023/05/11 12:44:08;;;;;;;3.88;1.80;;;24.80;99.90;;;;;;4441075;28;657727;-74
2023/05/11 12:46:57;;;;;;;5.70;1.70;;;25.10;99.90;;;;;;4419490;28;657647;-73
2023/05/11 12:49:44;;;;;;;4.75;1.58;;;25.20;99.90;;;;;;4441268;28;657976;-73
2023/05/11 12:52:31;;;;;;;3.85;1.50;;;25.20;99.90;;;;;;4420884;28;657988;-74
2023/05/11 12:55:27;;;;;;;3.65;1.50;;;25.30;99.90;;;;;;4446073;28;657679;-74
2023/05/11 12:58:17;;;;;;;4.45;1.60;;;24.90;99.90;;;;;;4409435;28;658580;-74
2023/05/11 13:01:05;;;;;;;3.95;1.88;;;25.00;99.90;;;;;;4413980;28;657512;-75
2023/05/11 13:03:53;;;;;;;7.95;1.73;;;25.20;99.90;;;;;;4417346;28;658175;-74
2023/05/11 13:06:44;;;;;;;1.50;1.40;;;25.30;99.90;;;;;;4418662;28;657208;-74
2023/05/11 13:09:32;;;;;;;6.13;1.73;;;25.50;99.90;;;;;;4417314;28;658720;-74
2023/05/11 13:12:20;;;;;;;7.13;1.63;;;25.60;99.90;;;;;;4440896;28;658664;-74
2023/05/11 13:15:10;;;;;;;4.85;1.80;;;26.00;99.90;;;;;;4406820;28;659412;-74
2023/05/11 13:17:57;;;;;;;8.65;1.95;;;25.40;99.90;;;;;;4417240;28;659487;-73
2023/05/11 13:20:47;;;;;;;9.10;1.52;;;25.40;99.90;;;;;;4438299;28;657496;-73
2023/05/11 13:23:35;;;;;;;6.27;1.70;;;25.50;99.90;;;;;;4434905;28;658230;-73
2023/05/11 13:26:23;;;;;;;3.30;1.52;;;25.40;99.90;;;;;;4416493;28;658469;-74
2023/05/11 13:29:10;;;;;;;9.30;1.77;;;24.60;99.90;;;;;;4420955;28;658105;-72
2023/05/11 13:31:57;;;;;;;2.85;1.70;;;24.50;99.90;;;;;;4428570;28;659008;-73
2023/05/11 13:34:45;;;;;;;5.50;1.80;;;24.90;99.90;;;;;;4435652;28;658433;-72
2023/05/11 13:37:34;;;;;;;3.47;1.50;;;24.80;99.90;;;;;;4442947;28;659017;-72
2023/05/11 13:40:21;;;;;;;6.87;1.80;;;24.90;99.90;;;;;;4424007;28;657921;-74
2023/05/11 13:43:08;;;;;;;1.52;1.40;;;24.90;99.90;;;;;;4442298;28;659949;-72
2023/05/11 13:45:55;;;;;;;7.20;1.80;;;24.90;99.90;;;;;;4421479;28;658031;-73
2023/05/11 13:48:43;;;;;;;5.90;1.77;;;24.80;99.90;;;;;;4430328;28;658518;-72
2023/05/11 13:51:31;;;;;;;3.72;1.70;;;24.80;99.90;;;;;;4431422;28;657616;-72
2023/05/11 13:54:20;;;;;;;6.50;1.60;;;25.30;99.90;;;;;;4444247;28;658286;-73
2023/05/11 13:57:07;;;;;;;6.80;1.70;;;25.40;99.90;;;;;;4420221;28;657877;-73
2023/05/11 13:59:55;;;;;;;4.75;1.60;;;25.00;99.90;;;;;;4437960;28;658550;-73
2023/05/11 14:02:43;;;;;;;5.68;1.83;;;25.40;99.90;;;;;;4422746;28;658686;-73
2023/05/11 14:05:31;;;;;;;2.25;1.75;;;25.20;99.90;;;;;;4408570;28;657483;-73
2023/05/11 14:08:18;;;;;;;3.97;1.90;;;25.50;99.90;;;;;;4442926;28;658487;-72
2023/05/11 14:11:07;;;;;;;8.15;1.92;;;25.20;99.90;;;;;;4421337;28;657850;-73
2023/05/11 14:13:54;;;;;;;5.05;1.90;;;25.10;99.90;;;;;;4440950;28;657423;-73
2023/05/11 14:16:41;;;;;;;6.63;1.70;;;25.80;99.90;;;;;;4418966;28;657957;-73
2023/05/11 14:19:28;;;;;;;3.47;1.90;;;26.00;99.90;;;;;;4439704;28;658607;-73
2023/05/11 14:22:15;;;;;;;9.27;1.98;;;26.00;99.90;;;;;;4410137;28;659147;-73
2023/05/11 14:25:03;;;;;;;3.00;2.10;;;25.70;99.90;;;;;;4433423;28;658412;-73
2023/05/11 14:27:53;;;;;;;2.95;1.80;;;25.70;99.90;;;;;;4430854;28;657575;-73
2023/05/11 14:30:40;;;;;;;9.50;1.95;;;25.50;99.90;;;;;;4418928;28;658257;-72
2023/05/11 14:33:27;;;;;;;9.82;1.80;;;25.70;99.90;;;;;;4445352;28;658823;-72
2023/05/11 14:36:15;;;;;;;7.97;1.90;;;25.70;99.90;;;;;;4436512;28;657872;-73
2023/05/11 14:39:03;;;;;;;4.85;1.80;;;25.80;99.90;;;;;;4432629;28;659052;-74
2023/05/11 14:41:50;;;;;;;2.08;1.48;;;25.60;99.90;;;;;;4429009;28;657822;-73
2023/05/11 14:44:40;;;;;;;6.75;1.80;;;25.60;99.90;;;;;;4440122;28;658492;-73
2023/05/11 14:47:27;;;;;;;3.88;2.00;;;25.40;99.90;;;;;;4419092;28;657988;-73
2023/05/11 14:50:14;;;;;;;9.07;1.70;;;25.70;99.90;;;;;;4434902;28;658653;-73
2023/05/11 14:53:02;;;;;;;4.15;1.52;;;25.50;99.90;;;;;;4421416;28;658303;-73
2023/05/11 14:55:49;;;;;;;6.45;2.15;;;25.60;99.90;;;;;;4434176;28;657848;-73
2023/05/11 14:58:36;;;;;;;2.50;1.85;;;25.70;99.90;;;;;;4406479;28;657858;-74
2023/05/11 15:01:25;;;;;;;7.57;1.90;;;25.10;99.90;;;;;;4420142;28;658630;-73
2023/05/11 15:04:12;;;;;;;3.38;2.10;;;24.90;99.90;;;;;;4419684;28;659233;-73
2023/05/11 15:06:59;;;;;;;4.60;1.88;;;25.00;99.90;;;;;;4437956;28;657191;-74
2023/05/11 15:09:46;;;;;;;4.03;1.53;;;25.00;99.90;;;;;;4419893;28;657817;-73
2023/05/11 15:12:33;;;;;;;4.78;1.83;;;25.20;99.90;;;;;;4438615;28;658657;-74
2023/05/11 15:15:21;;;;;;;3.90;1.70;;;24.90;99.90;;;;;;4420651;28;658596;-73
2023/05/11 15:18:12;;;;;;;5.70;1.75;;;25.30;99.90;;;;;;4439416;28;657670;-73
2023/05/11 15:21:02;;;;;;;3.15;1.73;;;25.40;99.90;;;;;;4425973;28;660411;-73
2023/05/11 15:23:50;;;;;;;3.90;1.60;;;25.90;99.90;;;;;;4431094;28;657614;-74
2023/05/11 15:26:38;;;;;;;3.08;1.70;;;26.40;99.90;;;;;;4412187;28;658557;-73
2023/05/11 15:29:25;;;;;;;4.10;1.67;;;25.90;99.90;;;;;;4432733;28;657804;-73
2023/05/11 15:32:13;;;;;;;7.82;2.20;;;26.20;99.90;;;;;;4440046;28;659041;-74
2023/05/11 15:35:02;;;;;;;5.80;1.75;;;31.70;99.90;;;;;;4417935;28;657755;-72
2023/05/11 15:37:49;;;;;;;5.00;1.58;;;35.10;99.90;;;;;;4435723;28;656946;-73
2023/05/11 15:40:36;;;;;;;6.18;1.92;;;37.90;99.90;;;;;;4419530;28;657526;-74
2023/05/11 15:43:23;;;;;;;4.75;2.20;;;38.50;99.90;;;;;;4439407;28;658422;-73
2023/05/11 15:46:10;;;;;;;6.70;2.67;;;40.30;99.90;;;;;;4420801;28;657962;-74
2023/05/11 15:48:58;;;;;;;3.45;1.60;;;39.70;99.90;;;;;;4438551;28;658650;-74
2023/05/11 15:51:47;;;;;;;6.53;2.33;;;39.40;99.90;;;;;;4432514;28;657704;-73
2023/05/11 15:54:34;;;;;;;3.05;1.85;;;36.30;99.90;;;;;;4430600;28;657778;-73
2023/05/11 15:57:21;;;;;;;4.68;1.92;;;38.60;99.90;;;;;;4422220;28;658019;-74
2023/05/11 16:00:09;;;;;;;4.35;2.00;;;39.70;99.90;;;;;;4447726;28;658586;-73
2023/05/11 16:02:57;;;;;;;4.25;2.20;;;39.40;99.90;;;;;;4421298;28;657433;-73
2023/05/11 16:05:44;;;;;;;7.25;1.83;;;40.90;99.90;;;;;;4440614;28;657711;-73
2023/05/11 16:08:33;;;;;;;2.78;2.00;;;38.70;99.90;;;;;;4418210;28;657950;-73
2023/05/11 16:11:20;;;;;;;3.78;1.65;;;38.00;99.90;;;;;;4432079;28;657554;-73
2023/05/11 16:14:07;;;;;;;5.03;1.45;;;39.00;99.90;;;;;;4433514;28;658977;-73
2023/05/11 16:16:55;;;;;;;3.72;1.80;;;37.20;99.90;;;;;;4438948;28;657670;-72
2023/05/11 16:19:42;;;;;;;6.55;1.88;;;36.80;99.90;;;;;;4437508;28;658553;-74
2023/05/11 16:22:30;;;;;;;7.63;2.00;;;39.10;99.90;;;;;;4437002;28;658360;-73
2023/05/11 16:25:19;;;;;;;5.65;2.00;;;38.10;99.90;;;;;;4441797;28;658724;-73
2023/05/11 16:28:06;;;;;;;6.70;2.38;;;38.30;99.90;;;;;;4420397;28;658238;-73
2023/05/11 16:30:54;;;;;;;3.42;1.92;;;38.40;99.90;;;;;;4430881;28;658706;-74
2023/05/11 16:33:41;;;;;;;9.85;2.20;;;37.60;99.90;;;;;;4422493;28;658220;-74
2023/05/11 16:36:29;;;;;;;3.55;2.22;;;37.70;99.90;;;;;;4437761;28;658803;-73
2023/05/11 16:39:16;;;;;;;4.53;1.98;;;39.40;99.90;;;;;;4424642;28;658049;-73
2023/05/11 16:42:05;;;;;;;5.15;3.00;;;39.30;99.90;;;;;;4447151;28;657270;-74
2023/05/11 16:44:52;;;;;;;6.70;3.10;;;39.30;99.90;;;;;;4418606;28;659443;-74
2023/05/11 16:47:39;;;;;;;4.53;2.28;;;38.90;99.90;;;;;;4434184;28;657728;-73
2023/05/11 16:50:26;;;;;;;5.25;3.00;;;36.90;99.90;;;;;;4423406;28;657825;-73
2023/05/11 16:53:14;;;;;;;7.82;2.30;;;36.10;99.90;;;;;;4440731;28;658604;-74
2023/05/11 16:56:01;;;;;;;6.85;2.47;;;35.60;99.90;;;;;;4420890;28;657686;-73
2023/05/11 16:58:50;;;;;;;5.85;1.95;;;35.60;99.90;;;;;;4442774;28;658117;-73
2023/05/11 17:01:37;;;;;;;5.05;2.03;;;35.10;99.90;;;;;;4415394;28;658501;-73
2023/05/11 17:04:24;;;;;;;7.40;1.98;;;33.70;99.90;;;;;;4442357;28;658031;-73
2023/05/11 17:07:13;;;;;;;6.55;2.75;;;33.00;99.90;;;;;;4415902;28;657441;-73
2023/05/11 17:10:00;;;;;;;5.50;2.60;;;33.00;99.90;;;;;;4419526;28;657884;-73
2023/05/11 17:12:47;;;;;;;5.07;2.92;;;32.80;99.90;;;;;;4438142;28;659024;-72
2023/05/11 17:15:37;;;;;;;7.70;3.05;;;32.40;99.90;;;;;;4430680;28;657799;-73
2023/05/11 17:18:24;;;;;;;6.20;2.58;;;33.00;99.90;;;;;;4438394;28;658433;-73
2023/05/11 17:21:11;;;;;;;6.40;2.17;;;30.70;99.90;;;;;;4421367;28;657728;-73
2023/05/11 17:23:58;;;;;;;8.33;2.10;;;29.20;99.90;;;;;;4442793;28;658309;-72
2023/05/11 17:26:46;;;;;;;4.40;3.07;;;26.60;99.90;;;;;;4419658;28;657623;-72
2023/05/11 17:29:33;;;;;;;7.97;3.67;;;24.10;99.90;;;;;;4440903;28;658225;-72
2023/05/11 17:32:22;;;;;;;7.90;3.60;;;22.00;99.90;;;;;;4433824;28;657924;-71
2023/05/11 17:35:10;;;;;;;9.07;3.80;;;20.60;99.90;;;;;;4433398;28;657562;-72
2023/05/11 17:37:57;;;;;;;5.43;2.57;;;19.70;99.90;;;;;;4412591;28;658618;-72
2023/05/11 17:40:44;;;;;;;5.37;2.83;;;18.90;99.90;;;;;;4436466;28;657926;-71
2023/05/11 17:43:32;;;;;;;5.93;2.47;;;18.40;99.90;;;;;;4421483;28;657723;-71
2023/05/11 17:46:19;;;;;;;5.73;2.33;;;17.90;99.90;;;;;;4440078;28;656966;-72